Terminal Aerodrome Forecast
Issued by NWS Cleveland, OH

Home | Current Version | Previous Version | Text Only | Print | Product List | Glossary Off
Versions: 1 2 3 4 5 6 7 8 9 10 11 12 13 14 15 16 17 18 19 20

279
FTUS41 KCLE 171120
TAFMFD
TAF
KMFD 171120Z 1712/1812 VRB03KT P6SM OVC025
     FM171800 16008KT P6SM OVC035
     FM172100 16012KT P6SM BKN035
     FM180500 18010G16KT P6SM VCSH OVC025
     FM180800 18012G20KT 3SM -SHRA SCT008 OVC015=

USA.gov is the U.S. government's official web portal to all federal, state and local government web resources and services.